sensor_id;sensor_type;location;lat;lon;timestamp;temperature;humidity
8178;DHT22;4130;48.740;9.132;2022-10-26T00:00:45;11.00;99.90
8178;DHT22;4130;48.740;9.132;2022-10-26T00:03:12;11.00;99.90
8178;DHT22;4130;48.740;9.132;2022-10-26T00:05:39;11.00;99.90
8178;DHT22;4130;48.740;9.132;2022-10-26T00:08:06;11.00;99.90
8178;DHT22;4130;48.740;9.132;2022-10-26T00:10:35;11.00;99.90
8178;DHT22;4130;48.740;9.132;2022-10-26T00:13:04;11.00;99.90
8178;DHT22;4130;48.740;9.132;2022-10-26T00:15:33;11.00;99.90
8178;DHT22;4130;48.740;9.132;2022-10-26T00:18:00;11.10;99.90
8178;DHT22;4130;48.740;9.132;2022-10-26T00:20:26;11.10;99.90
8178;DHT22;4130;48.740;9.132;2022-10-26T00:22:53;11.10;99.90
8178;DHT22;4130;48.740;9.132;2022-10-26T00:25:20;11.20;99.90
8178;DHT22;4130;48.740;9.132;2022-10-26T00:27:48;11.20;99.90
8178;DHT22;4130;48.740;9.132;2022-10-26T00:30:15;11.20;99.90
8178;DHT22;4130;48.740;9.132;2022-10-26T00:32:41;11.20;99.90
8178;DHT22;4130;48.740;9.132;2022-10-26T00:35:08;11.10;99.90
8178;DHT22;4130;48.740;9.132;2022-10-26T00:37:35;11.20;99.90
8178;DHT22;4130;48.740;9.132;2022-10-26T00:40:02;11.20;99.90
8178;DHT22;4130;48.740;9.132;2022-10-26T00:42:29;11.20;99.90
8178;DHT22;4130;48.740;9.132;2022-10-26T00:45:03;11.30;99.90
8178;DHT22;4130;48.740;9.132;2022-10-26T00:47:36;11.30;99.90
8178;DHT22;4130;48.740;9.132;2022-10-26T00:50:07;11.30;99.90
8178;DHT22;4130;48.740;9.132;2022-10-26T00:52:36;11.30;99.90
8178;DHT22;4130;48.740;9.132;2022-10-26T00:55:04;11.30;99.90
8178;DHT22;4130;48.740;9.132;2022-10-26T00:57:31;11.30;99.90
8178;DHT22;4130;48.740;9.132;2022-10-26T01:00:00;11.30;99.90
8178;DHT22;4130;48.740;9.132;2022-10-26T01:02:27;11.30;99.90
8178;DHT22;4130;48.740;9.132;2022-10-26T01:04:54;11.40;99.90
8178;DHT22;4130;48.740;9.132;2022-10-26T01:07:22;11.30;99.90
8178;DHT22;4130;48.740;9.132;2022-10-26T01:09:50;11.30;99.90
8178;DHT22;4130;48.740;9.132;2022-10-26T01:12:17;11.40;99.90
8178;DHT22;4130;48.740;9.132;2022-10-26T01:14:44;11.40;99.90
8178;DHT22;4130;48.740;9.132;2022-10-26T01:17:26;11.30;99.90
8178;DHT22;4130;48.740;9.132;2022-10-26T01:23:01;11.30;99.90
8178;DHT22;4130;48.740;9.132;2022-10-26T01:25:52;11.30;99.90
8178;DHT22;4130;48.740;9.132;2022-10-26T01:28:32;11.40;99.90
8178;DHT22;4130;48.740;9.132;2022-10-26T01:31:04;11.30;99.90
8178;DHT22;4130;48.740;9.132;2022-10-26T01:33:37;11.30;99.90
8178;DHT22;4130;48.740;9.132;2022-10-26T01:36:10;11.30;99.90
8178;DHT22;4130;48.740;9.132;2022-10-26T01:38:50;11.30;99.90
8178;DHT22;4130;48.740;9.132;2022-10-26T01:41:24;11.50;99.90
8178;DHT22;4130;48.740;9.132;2022-10-26T01:43:55;11.30;99.90
8178;DHT22;4130;48.740;9.132;2022-10-26T01:46:28;11.30;99.90
8178;DHT22;4130;48.740;9.132;2022-10-26T01:48:58;11.40;99.90
8178;DHT22;4130;48.740;9.132;2022-10-26T01:51:27;11.40;99.90
8178;DHT22;4130;48.740;9.132;2022-10-26T01:53:57;11.40;99.90
8178;DHT22;4130;48.740;9.132;2022-10-26T01:56:26;11.40;99.90
8178;DHT22;4130;48.740;9.132;2022-10-26T01:59:16;11.40;99.90
8178;DHT22;4130;48.740;9.132;2022-10-26T02:02:24;11.40;99.90
8178;DHT22;4130;48.740;9.132;2022-10-26T02:05:04;11.40;99.90
8178;DHT22;4130;48.740;9.132;2022-10-26T02:07:39;11.40;99.90
8178;DHT22;4130;48.740;9.132;2022-10-26T02:10:13;11.30;99.90
8178;DHT22;4130;48.740;9.132;2022-10-26T02:12:52;11.30;99.90
8178;DHT22;4130;48.740;9.132;2022-10-26T02:15:28;11.30;99.90
8178;DHT22;4130;48.740;9.132;2022-10-26T02:18:07;11.30;99.90
8178;DHT22;4130;48.740;9.132;2022-10-26T02:20:39;11.20;99.90
8178;DHT22;4130;48.740;9.132;2022-10-26T02:23:10;11.50;99.90
8178;DHT22;4130;48.740;9.132;2022-10-26T02:25:41;11.20;99.90
8178;DHT22;4130;48.740;9.132;2022-10-26T02:28:12;11.20;99.90
8178;DHT22;4130;48.740;9.132;2022-10-26T02:30:41;11.30;99.90
8178;DHT22;4130;48.740;9.132;2022-10-26T02:33:11;11.30;99.90
8178;DHT22;4130;48.740;9.132;2022-10-26T02:35:40;11.30;99.90
8178;DHT22;4130;48.740;9.132;2022-10-26T02:38:09;11.20;99.90
8178;DHT22;4130;48.740;9.132;2022-10-26T02:40:36;11.30;99.90
8178;DHT22;4130;48.740;9.132;2022-10-26T02:43:06;11.30;99.90
8178;DHT22;4130;48.740;9.132;2022-10-26T02:45:38;11.30;99.90
8178;DHT22;4130;48.740;9.132;2022-10-26T02:48:06;11.30;99.90
8178;DHT22;4130;48.740;9.132;2022-10-26T02:50:42;11.30;99.90
8178;DHT22;4130;48.740;9.132;2022-10-26T02:53:13;11.30;99.90
8178;DHT22;4130;48.740;9.132;2022-10-26T02:55:47;11.30;99.90
8178;DHT22;4130;48.740;9.132;2022-10-26T02:58:18;11.20;99.90
8178;DHT22;4130;48.740;9.132;2022-10-26T03:00:46;11.20;99.90
8178;DHT22;4130;48.740;9.132;2022-10-26T03:03:13;11.20;99.90
8178;DHT22;4130;48.740;9.132;2022-10-26T03:05:42;11.30;99.90
8178;DHT22;4130;48.740;9.132;2022-10-26T03:08:09;11.30;99.90
8178;DHT22;4130;48.740;9.132;2022-10-26T03:10:40;11.30;99.90
8178;DHT22;4130;48.740;9.132;2022-10-26T03:13:07;11.30;99.90
8178;DHT22;4130;48.740;9.132;2022-10-26T03:15:34;11.40;99.90
8178;DHT22;4130;48.740;9.132;2022-10-26T03:18:01;11.40;99.90
8178;DHT22;4130;48.740;9.132;2022-10-26T03:20:28;11.40;99.90
8178;DHT22;4130;48.740;9.132;2022-10-26T03:22:56;11.40;99.90
8178;DHT22;4130;48.740;9.132;2022-10-26T03:25:23;11.90;99.90
8178;DHT22;4130;48.740;9.132;2022-10-26T03:27:55;11.40;99.90
8178;DHT22;4130;48.740;9.132;2022-10-26T03:30:22;11.60;99.90
8178;DHT22;4130;48.740;9.132;2022-10-26T03:32:49;11.50;99.90
8178;DHT22;4130;48.740;9.132;2022-10-26T03:35:16;11.50;99.90
8178;DHT22;4130;48.740;9.132;2022-10-26T03:37:42;11.50;99.90
8178;DHT22;4130;48.740;9.132;2022-10-26T03:40:11;11.70;99.90
8178;DHT22;4130;48.740;9.132;2022-10-26T03:42:38;11.70;99.90
8178;DHT22;4130;48.740;9.132;2022-10-26T03:45:06;11.80;99.90
8178;DHT22;4130;48.740;9.132;2022-10-26T03:47:33;12.00;99.90
8178;DHT22;4130;48.740;9.132;2022-10-26T03:50:00;12.00;99.90
8178;DHT22;4130;48.740;9.132;2022-10-26T03:52:27;12.20;99.90
8178;DHT22;4130;48.740;9.132;2022-10-26T03:54:54;12.20;99.90
8178;DHT22;4130;48.740;9.132;2022-10-26T03:57:22;12.30;99.90
8178;DHT22;4130;48.740;9.132;2022-10-26T03:59:48;12.40;99.90
8178;DHT22;4130;48.740;9.132;2022-10-26T04:02:15;12.40;99.90
8178;DHT22;4130;48.740;9.132;2022-10-26T04:04:42;12.40;99.90
8178;DHT22;4130;48.740;9.132;2022-10-26T04:07:09;12.50;99.90
8178;DHT22;4130;48.740;9.132;2022-10-26T04:09:36;12.60;99.90
8178;DHT22;4130;48.740;9.132;2022-10-26T04:12:03;12.60;99.90
8178;DHT22;4130;48.740;9.132;2022-10-26T04:14:31;12.70;99.90
8178;DHT22;4130;48.740;9.132;2022-10-26T04:16:58;12.70;99.90
8178;DHT22;4130;48.740;9.132;2022-10-26T04:19:25;12.70;99.90
8178;DHT22;4130;48.740;9.132;2022-10-26T04:21:51;12.70;99.90
8178;DHT22;4130;48.740;9.132;2022-10-26T04:24:18;12.70;99.90
8178;DHT22;4130;48.740;9.132;2022-10-26T04:26:45;12.70;99.90
8178;DHT22;4130;48.740;9.132;2022-10-26T04:29:12;12.70;99.90
8178;DHT22;4130;48.740;9.132;2022-10-26T04:31:40;12.60;99.90
8178;DHT22;4130;48.740;9.132;2022-10-26T04:34:07;12.60;99.90
8178;DHT22;4130;48.740;9.132;2022-10-26T04:36:34;12.50;99.90
8178;DHT22;4130;48.740;9.132;2022-10-26T04:39:01;12.60;99.90
8178;DHT22;4130;48.740;9.132;2022-10-26T04:41:27;12.50;99.90
8178;DHT22;4130;48.740;9.132;2022-10-26T04:43:54;12.50;99.90
8178;DHT22;4130;48.740;9.132;2022-10-26T04:46:21;12.80;99.90
8178;DHT22;4130;48.740;9.132;2022-10-26T04:48:49;12.50;99.90
8178;DHT22;4130;48.740;9.132;2022-10-26T04:51:16;12.50;99.90
8178;DHT22;4130;48.740;9.132;2022-10-26T04:53:43;12.50;99.90
8178;DHT22;4130;48.740;9.132;2022-10-26T04:56:10;12.50;99.90
8178;DHT22;4130;48.740;9.132;2022-10-26T04:58:36;12.50;99.90
8178;DHT22;4130;48.740;9.132;2022-10-26T05:01:03;12.50;99.90
8178;DHT22;4130;48.740;9.132;2022-10-26T05:03:30;12.50;99.90
8178;DHT22;4130;48.740;9.132;2022-10-26T05:05:58;12.50;99.90
8178;DHT22;4130;48.740;9.132;2022-10-26T05:08:26;12.60;99.90
8178;DHT22;4130;48.740;9.132;2022-10-26T05:10:54;12.60;99.90
8178;DHT22;4130;48.740;9.132;2022-10-26T05:13:21;12.50;99.90
8178;DHT22;4130;48.740;9.132;2022-10-26T05:15:51;12.50;99.90
8178;DHT22;4130;48.740;9.132;2022-10-26T05:18:18;12.60;99.90
8178;DHT22;4130;48.740;9.132;2022-10-26T05:20:44;12.60;99.90
8178;DHT22;4130;48.740;9.132;2022-10-26T05:23:15;12.60;99.90
8178;DHT22;4130;48.740;9.132;2022-10-26T05:25:43;12.60;99.90
8178;DHT22;4130;48.740;9.132;2022-10-26T05:28:12;12.70;99.90
8178;DHT22;4130;48.740;9.132;2022-10-26T05:30:39;12.70;99.90
8178;DHT22;4130;48.740;9.132;2022-10-26T05:33:16;12.70;99.90
8178;DHT22;4130;48.740;9.132;2022-10-26T05:35:43;12.70;99.90
8178;DHT22;4130;48.740;9.132;2022-10-26T05:38:12;12.80;99.90
8178;DHT22;4130;48.740;9.132;2022-10-26T05:40:46;12.80;99.90
8178;DHT22;4130;48.740;9.132;2022-10-26T05:43:13;12.80;99.90
8178;DHT22;4130;48.740;9.132;2022-10-26T05:45:40;12.80;99.90
8178;DHT22;4130;48.740;9.132;2022-10-26T05:48:07;12.80;99.90
8178;DHT22;4130;48.740;9.132;2022-10-26T05:50:35;12.90;99.90
8178;DHT22;4130;48.740;9.132;2022-10-26T05:53:03;12.90;99.90
8178;DHT22;4130;48.740;9.132;2022-10-26T05:55:30;13.00;99.90
8178;DHT22;4130;48.740;9.132;2022-10-26T05:57:57;12.90;99.90
8178;DHT22;4130;48.740;9.132;2022-10-26T06:00:26;13.00;99.90
8178;DHT22;4130;48.740;9.132;2022-10-26T06:03:05;13.00;99.90
8178;DHT22;4130;48.740;9.132;2022-10-26T06:05:36;13.10;99.90
8178;DHT22;4130;48.740;9.132;2022-10-26T06:08:07;13.10;99.90
8178;DHT22;4130;48.740;9.132;2022-10-26T06:10:35;13.10;99.90
8178;DHT22;4130;48.740;9.132;2022-10-26T06:13:02;13.20;99.90
8178;DHT22;4130;48.740;9.132;2022-10-26T06:15:31;13.20;99.90
8178;DHT22;4130;48.740;9.132;2022-10-26T06:18:06;13.20;99.90
8178;DHT22;4130;48.740;9.132;2022-10-26T06:20:45;13.20;99.90
8178;DHT22;4130;48.740;9.132;2022-10-26T06:23:37;13.30;99.90
8178;DHT22;4130;48.740;9.132;2022-10-26T06:26:11;13.40;99.90
8178;DHT22;4130;48.740;9.132;2022-10-26T06:28:49;13.40;99.90
8178;DHT22;4130;48.740;9.132;2022-10-26T06:31:19;13.50;99.90
8178;DHT22;4130;48.740;9.132;2022-10-26T06:33:46;13.50;99.90
8178;DHT22;4130;48.740;9.132;2022-10-26T06:36:21;13.50;99.90
8178;DHT22;4130;48.740;9.132;2022-10-26T06:38:49;13.50;99.90
8178;DHT22;4130;48.740;9.132;2022-10-26T06:41:19;13.50;99.90
8178;DHT22;4130;48.740;9.132;2022-10-26T06:43:47;13.50;99.90
8178;DHT22;4130;48.740;9.132;2022-10-26T06:46:24;13.50;99.90
8178;DHT22;4130;48.740;9.132;2022-10-26T06:48:59;13.50;99.90
8178;DHT22;4130;48.740;9.132;2022-10-26T06:51:30;13.50;99.90
8178;DHT22;4130;48.740;9.132;2022-10-26T06:54:01;13.50;99.90
8178;DHT22;4130;48.740;9.132;2022-10-26T06:56:31;13.60;99.90
8178;DHT22;4130;48.740;9.132;2022-10-26T06:59:05;13.60;99.90
8178;DHT22;4130;48.740;9.132;2022-10-26T07:01:33;13.80;99.90
8178;DHT22;4130;48.740;9.132;2022-10-26T07:04:00;13.70;99.90
8178;DHT22;4130;48.740;9.132;2022-10-26T07:06:28;13.80;99.90
8178;DHT22;4130;48.740;9.132;2022-10-26T07:08:55;13.90;99.90
8178;DHT22;4130;48.740;9.132;2022-10-26T07:11:22;14.00;99.90
8178;DHT22;4130;48.740;9.132;2022-10-26T07:13:48;14.00;99.90
8178;DHT22;4130;48.740;9.132;2022-10-26T07:16:16;14.00;99.90
8178;DHT22;4130;48.740;9.132;2022-10-26T07:18:43;14.00;99.90
8178;DHT22;4130;48.740;9.132;2022-10-26T07:21:09;14.10;99.90
8178;DHT22;4130;48.740;9.132;2022-10-26T07:23:37;14.20;99.90
8178;DHT22;4130;48.740;9.132;2022-10-26T07:26:04;14.30;99.90
8178;DHT22;4130;48.740;9.132;2022-10-26T07:28:31;14.30;99.90
8178;DHT22;4130;48.740;9.132;2022-10-26T07:30:58;14.40;99.90
8178;DHT22;4130;48.740;9.132;2022-10-26T07:33:24;14.50;99.90
8178;DHT22;4130;48.740;9.132;2022-10-26T07:35:51;14.50;99.90
8178;DHT22;4130;48.740;9.132;2022-10-26T07:38:19;14.50;99.90
8178;DHT22;4130;48.740;9.132;2022-10-26T07:40:48;14.60;99.90
8178;DHT22;4130;48.740;9.132;2022-10-26T07:43:18;14.70;99.90
8178;DHT22;4130;48.740;9.132;2022-10-26T07:45:48;14.80;99.90
8178;DHT22;4130;48.740;9.132;2022-10-26T07:48:15;14.90;99.90
8178;DHT22;4130;48.740;9.132;2022-10-26T07:50:42;15.00;99.90
8178;DHT22;4130;48.740;9.132;2022-10-26T07:53:09;15.00;99.90
8178;DHT22;4130;48.740;9.132;2022-10-26T07:55:36;15.10;99.90
8178;DHT22;4130;48.740;9.132;2022-10-26T07:58:04;15.20;99.90
8178;DHT22;4130;48.740;9.132;2022-10-26T08:00:30;15.20;99.90
8178;DHT22;4130;48.740;9.132;2022-10-26T08:02:57;15.30;99.90
8178;DHT22;4130;48.740;9.132;2022-10-26T08:05:24;15.30;99.90
8178;DHT22;4130;48.740;9.132;2022-10-26T08:07:50;15.40;99.90
8178;DHT22;4130;48.740;9.132;2022-10-26T08:10:17;15.40;99.90
8178;DHT22;4130;48.740;9.132;2022-10-26T08:12:44;15.50;99.90
8178;DHT22;4130;48.740;9.132;2022-10-26T08:15:12;15.60;99.90
8178;DHT22;4130;48.740;9.132;2022-10-26T08:17:39;15.60;99.90
8178;DHT22;4130;48.740;9.132;2022-10-26T08:20:06;15.60;99.90
8178;DHT22;4130;48.740;9.132;2022-10-26T08:22:33;15.70;99.90
8178;DHT22;4130;48.740;9.132;2022-10-26T08:25:00;15.80;99.90
8178;DHT22;4130;48.740;9.132;2022-10-26T08:27:27;15.90;99.90
8178;DHT22;4130;48.740;9.132;2022-10-26T08:29:54;15.90;99.90
8178;DHT22;4130;48.740;9.132;2022-10-26T08:32:22;16.00;99.90
8178;DHT22;4130;48.740;9.132;2022-10-26T08:34:49;16.00;99.90
8178;DHT22;4130;48.740;9.132;2022-10-26T08:37:16;16.00;99.90
8178;DHT22;4130;48.740;9.132;2022-10-26T08:39:42;16.80;99.90
8178;DHT22;4130;48.740;9.132;2022-10-26T08:42:13;16.10;99.90
8178;DHT22;4130;48.740;9.132;2022-10-26T08:44:45;16.10;99.90
8178;DHT22;4130;48.740;9.132;2022-10-26T08:47:15;16.10;99.90
8178;DHT22;4130;48.740;9.132;2022-10-26T08:49:49;16.10;99.90
8178;DHT22;4130;48.740;9.132;2022-10-26T08:52:22;16.10;99.90
8178;DHT22;4130;48.740;9.132;2022-10-26T08:54:53;16.10;99.90
8178;DHT22;4130;48.740;9.132;2022-10-26T08:57:24;16.20;99.90
8178;DHT22;4130;48.740;9.132;2022-10-26T08:59:56;16.30;99.90
8178;DHT22;4130;48.740;9.132;2022-10-26T09:02:23;16.30;99.90
8178;DHT22;4130;48.740;9.132;2022-10-26T09:04:52;16.40;99.90
8178;DHT22;4130;48.740;9.132;2022-10-26T09:07:31;16.50;99.90
8178;DHT22;4130;48.740;9.132;2022-10-26T09:10:12;16.60;99.90
8178;DHT22;4130;48.740;9.132;2022-10-26T09:12:46;16.80;99.90
8178;DHT22;4130;48.740;9.132;2022-10-26T09:15:18;16.80;99.90
8178;DHT22;4130;48.740;9.132;2022-10-26T09:17:56;16.90;99.90
8178;DHT22;4130;48.740;9.132;2022-10-26T09:20:39;16.80;99.90
8178;DHT22;4130;48.740;9.132;2022-10-26T09:23:18;16.90;99.90
8178;DHT22;4130;48.740;9.132;2022-10-26T09:25:51;17.00;99.90
8178;DHT22;4130;48.740;9.132;2022-10-26T09:28:21;17.00;99.90
8178;DHT22;4130;48.740;9.132;2022-10-26T09:30:48;17.10;99.90
8178;DHT22;4130;48.740;9.132;2022-10-26T09:33:16;17.10;99.90
8178;DHT22;4130;48.740;9.132;2022-10-26T09:35:50;17.20;99.90
8178;DHT22;4130;48.740;9.132;2022-10-26T09:38:22;17.20;99.90
8178;DHT22;4130;48.740;9.132;2022-10-26T09:40:56;17.20;99.90
8178;DHT22;4130;48.740;9.132;2022-10-26T09:43:26;17.30;99.90
8178;DHT22;4130;48.740;9.132;2022-10-26T09:45:55;17.40;99.90
8178;DHT22;4130;48.740;9.132;2022-10-26T09:48:28;17.60;99.90
8178;DHT22;4130;48.740;9.132;2022-10-26T09:50:58;17.90;99.90
8178;DHT22;4130;48.740;9.132;2022-10-26T09:53:25;18.30;99.90
8178;DHT22;4130;48.740;9.132;2022-10-26T09:55:59;18.80;99.90
8178;DHT22;4130;48.740;9.132;2022-10-26T09:58:29;19.00;99.90
8178;DHT22;4130;48.740;9.132;2022-10-26T10:00:57;19.40;99.90
8178;DHT22;4130;48.740;9.132;2022-10-26T10:03:25;19.80;99.90
8178;DHT22;4130;48.740;9.132;2022-10-26T10:05:53;20.00;99.90
8178;DHT22;4130;48.740;9.132;2022-10-26T10:08:22;19.80;99.90
8178;DHT22;4130;48.740;9.132;2022-10-26T10:10:54;19.70;99.90
8178;DHT22;4130;48.740;9.132;2022-10-26T10:13:22;19.50;99.90
8178;DHT22;4130;48.740;9.132;2022-10-26T10:15:51;19.70;99.90
8178;DHT22;4130;48.740;9.132;2022-10-26T10:18:19;19.30;99.90
8178;DHT22;4130;48.740;9.132;2022-10-26T10:20:51;19.20;99.90
8178;DHT22;4130;48.740;9.132;2022-10-26T10:23:27;19.00;99.90
8178;DHT22;4130;48.740;9.132;2022-10-26T10:26:02;19.00;99.90
8178;DHT22;4130;48.740;9.132;2022-10-26T10:28:30;19.20;99.90
8178;DHT22;4130;48.740;9.132;2022-10-26T10:30:58;19.40;99.90
8178;DHT22;4130;48.740;9.132;2022-10-26T10:33:36;19.50;99.90
8178;DHT22;4130;48.740;9.132;2022-10-26T10:36:07;19.70;99.90
8178;DHT22;4130;48.740;9.132;2022-10-26T10:38:41;19.70;99.90
8178;DHT22;4130;48.740;9.132;2022-10-26T10:41:16;19.70;99.90
8178;DHT22;4130;48.740;9.132;2022-10-26T10:43:47;19.60;99.90
8178;DHT22;4130;48.740;9.132;2022-10-26T10:46:22;19.60;99.90
8178;DHT22;4130;48.740;9.132;2022-10-26T10:49:00;19.50;99.90
8178;DHT22;4130;48.740;9.132;2022-10-26T10:51:29;19.70;99.90
8178;DHT22;4130;48.740;9.132;2022-10-26T10:53:57;19.80;99.90
8178;DHT22;4130;48.740;9.132;2022-10-26T10:56:33;20.00;99.90
8178;DHT22;4130;48.740;9.132;2022-10-26T10:59:18;20.30;99.90
8178;DHT22;4130;48.740;9.132;2022-10-26T11:01:49;20.50;99.90
8178;DHT22;4130;48.740;9.132;2022-10-26T11:04:43;20.70;99.90
8178;DHT22;4130;48.740;9.132;2022-10-26T11:07:15;20.90;99.90
8178;DHT22;4130;48.740;9.132;2022-10-26T11:09:46;21.00;99.90
8178;DHT22;4130;48.740;9.132;2022-10-26T11:12:16;21.00;99.90
8178;DHT22;4130;48.740;9.132;2022-10-26T11:14:45;20.80;99.90
8178;DHT22;4130;48.740;9.132;2022-10-26T11:17:18;20.60;99.90
8178;DHT22;4130;48.740;9.132;2022-10-26T11:19:48;20.50;99.90
8178;DHT22;4130;48.740;9.132;2022-10-26T11:22:21;20.50;99.90
8178;DHT22;4130;48.740;9.132;2022-10-26T11:24:55;20.50;99.90
8178;DHT22;4130;48.740;9.132;2022-10-26T11:27:26;20.40;99.90
8178;DHT22;4130;48.740;9.132;2022-10-26T11:29:58;20.60;99.90
8178;DHT22;4130;48.740;9.132;2022-10-26T11:32:30;20.70;99.90
8178;DHT22;4130;48.740;9.132;2022-10-26T11:35:02;20.90;99.90
8178;DHT22;4130;48.740;9.132;2022-10-26T11:37:35;21.00;99.90
8178;DHT22;4130;48.740;9.132;2022-10-26T11:40:17;21.20;99.90
8178;DHT22;4130;48.740;9.132;2022-10-26T11:42:50;21.20;99.90
8178;DHT22;4130;48.740;9.132;2022-10-26T11:45:23;21.10;99.90
8178;DHT22;4130;48.740;9.132;2022-10-26T11:47:53;21.20;99.90
8178;DHT22;4130;48.740;9.132;2022-10-26T11:50:25;21.30;99.90
8178;DHT22;4130;48.740;9.132;2022-10-26T11:52:55;21.30;99.90
8178;DHT22;4130;48.740;9.132;2022-10-26T11:55:25;21.20;99.90
8178;DHT22;4130;48.740;9.132;2022-10-26T11:57:53;21.30;99.90
8178;DHT22;4130;48.740;9.132;2022-10-26T12:00:21;21.40;99.90
8178;DHT22;4130;48.740;9.132;2022-10-26T12:02:51;21.40;99.90
8178;DHT22;4130;48.740;9.132;2022-10-26T12:05:22;21.20;99.90
8178;DHT22;4130;48.740;9.132;2022-10-26T12:07:52;21.10;99.90
8178;DHT22;4130;48.740;9.132;2022-10-26T12:10:26;21.00;99.90
8178;DHT22;4130;48.740;9.132;2022-10-26T12:13:01;21.00;99.90
8178;DHT22;4130;48.740;9.132;2022-10-26T12:15:32;21.10;99.90
8178;DHT22;4130;48.740;9.132;2022-10-26T12:18:08;21.10;99.90
8178;DHT22;4130;48.740;9.132;2022-10-26T12:20:57;21.10;99.90
8178;DHT22;4130;48.740;9.132;2022-10-26T12:23:28;21.00;99.90
8178;DHT22;4130;48.740;9.132;2022-10-26T12:26:38;20.90;99.90
8178;DHT22;4130;48.740;9.132;2022-10-26T12:29:24;20.90;99.90
8178;DHT22;4130;48.740;9.132;2022-10-26T12:31:51;21.00;99.90
8178;DHT22;4130;48.740;9.132;2022-10-26T12:34:22;21.00;99.90
8178;DHT22;4130;48.740;9.132;2022-10-26T12:39:33;21.00;99.90
8178;DHT22;4130;48.740;9.132;2022-10-26T12:42:24;20.80;99.90
8178;DHT22;4130;48.740;9.132;2022-10-26T12:45:17;20.90;99.90
8178;DHT22;4130;48.740;9.132;2022-10-26T12:48:01;21.00;99.90
8178;DHT22;4130;48.740;9.132;2022-10-26T12:50:28;21.10;99.90
8178;DHT22;4130;48.740;9.132;2022-10-26T12:52:55;21.10;99.90
8178;DHT22;4130;48.740;9.132;2022-10-26T12:55:58;21.20;99.90
8178;DHT22;4130;48.740;9.132;2022-10-26T12:59:02;21.10;99.90
8178;DHT22;4130;48.740;9.132;2022-10-26T13:01:47;21.20;99.90
8178;DHT22;4130;48.740;9.132;2022-10-26T13:07:18;21.30;99.90
8178;DHT22;4130;48.740;9.132;2022-10-26T13:09:55;21.40;99.90
8178;DHT22;4130;48.740;9.132;2022-10-26T13:12:22;21.20;99.90
8178;DHT22;4130;48.740;9.132;2022-10-26T13:15:03;21.10;99.90
8178;DHT22;4130;48.740;9.132;2022-10-26T13:17:32;21.10;99.90
8178;DHT22;4130;48.740;9.132;2022-10-26T13:20:03;21.10;99.90
8178;DHT22;4130;48.740;9.132;2022-10-26T13:22:31;21.10;99.90
8178;DHT22;4130;48.740;9.132;2022-10-26T13:25:03;21.10;99.90
8178;DHT22;4130;48.740;9.132;2022-10-26T13:27:42;21.20;99.90
8178;DHT22;4130;48.740;9.132;2022-10-26T13:30:20;21.00;99.90
8178;DHT22;4130;48.740;9.132;2022-10-26T13:33:01;20.90;99.90
8178;DHT22;4130;48.740;9.132;2022-10-26T13:35:29;20.70;99.90
8178;DHT22;4130;48.740;9.132;2022-10-26T13:37:59;20.60;99.90
8178;DHT22;4130;48.740;9.132;2022-10-26T13:40:35;20.50;99.90
8178;DHT22;4130;48.740;9.132;2022-10-26T13:43:05;20.50;99.90
8178;DHT22;4130;48.740;9.132;2022-10-26T13:45:37;20.50;99.90
8178;DHT22;4130;48.740;9.132;2022-10-26T13:48:11;20.40;99.90
8178;DHT22;4130;48.740;9.132;2022-10-26T13:50:46;20.40;99.90
8178;DHT22;4130;48.740;9.132;2022-10-26T13:53:16;20.40;99.90
8178;DHT22;4130;48.740;9.132;2022-10-26T13:55:49;20.50;99.90
8178;DHT22;4130;48.740;9.132;2022-10-26T13:58:22;20.50;99.90
8178;DHT22;4130;48.740;9.132;2022-10-26T14:01:03;20.50;99.90
8178;DHT22;4130;48.740;9.132;2022-10-26T14:03:37;20.50;99.90
8178;DHT22;4130;48.740;9.132;2022-10-26T14:06:04;20.50;99.90
8178;DHT22;4130;48.740;9.132;2022-10-26T14:08:32;20.50;99.90
8178;DHT22;4130;48.740;9.132;2022-10-26T14:10:59;20.50;99.90
8178;DHT22;4130;48.740;9.132;2022-10-26T14:13:27;20.50;99.90
8178;DHT22;4130;48.740;9.132;2022-10-26T14:15:57;20.60;99.90
8178;DHT22;4130;48.740;9.132;2022-10-26T14:18:28;20.70;99.90
8178;DHT22;4130;48.740;9.132;2022-10-26T14:20:57;20.60;99.90
8178;DHT22;4130;48.740;9.132;2022-10-26T14:23:27;20.70;99.90
8178;DHT22;4130;48.740;9.132;2022-10-26T14:25:54;20.90;99.90
8178;DHT22;4130;48.740;9.132;2022-10-26T14:28:23;21.00;99.90
8178;DHT22;4130;48.740;9.132;2022-10-26T14:30:50;20.90;99.90
8178;DHT22;4130;48.740;9.132;2022-10-26T14:33:18;20.70;99.90
8178;DHT22;4130;48.740;9.132;2022-10-26T14:35:47;20.40;99.90
8178;DHT22;4130;48.740;9.132;2022-10-26T14:38:18;20.20;99.90
8178;DHT22;4130;48.740;9.132;2022-10-26T14:40:47;20.50;99.90
8178;DHT22;4130;48.740;9.132;2022-10-26T14:43:17;20.00;99.90
8178;DHT22;4130;48.740;9.132;2022-10-26T14:45:47;19.90;99.90
8178;DHT22;4130;48.740;9.132;2022-10-26T14:48:21;19.80;99.90
8178;DHT22;4130;48.740;9.132;2022-10-26T14:51:00;19.80;99.90
8178;DHT22;4130;48.740;9.132;2022-10-26T14:53:32;19.90;99.90
8178;DHT22;4130;48.740;9.132;2022-10-26T14:56:00;19.90;99.90
8178;DHT22;4130;48.740;9.132;2022-10-26T14:58:28;20.00;99.90
8178;DHT22;4130;48.740;9.132;2022-10-26T15:03:57;20.20;99.90
8178;DHT22;4130;48.740;9.132;2022-10-26T15:06:41;20.10;99.90
8178;DHT22;4130;48.740;9.132;2022-10-26T15:12:28;20.00;99.90
8178;DHT22;4130;48.740;9.132;2022-10-26T15:15:00;20.10;99.90
8178;DHT22;4130;48.740;9.132;2022-10-26T15:17:37;20.10;99.90
8178;DHT22;4130;48.740;9.132;2022-10-26T15:20:11;20.00;99.90
8178;DHT22;4130;48.740;9.132;2022-10-26T15:22:42;19.90;99.90
8178;DHT22;4130;48.740;9.132;2022-10-26T15:25:17;19.70;99.90
8178;DHT22;4130;48.740;9.132;2022-10-26T15:27:45;19.50;99.90
8178;DHT22;4130;48.740;9.132;2022-10-26T15:30:21;19.40;99.90
8178;DHT22;4130;48.740;9.132;2022-10-26T15:32:48;19.20;99.90
8178;DHT22;4130;48.740;9.132;2022-10-26T15:35:32;19.10;99.90
8178;DHT22;4130;48.740;9.132;2022-10-26T15:38:00;18.90;99.90
8178;DHT22;4130;48.740;9.132;2022-10-26T15:40:27;18.70;99.90
8178;DHT22;4130;48.740;9.132;2022-10-26T15:42:59;18.50;99.90
8178;DHT22;4130;48.740;9.132;2022-10-26T15:45:27;18.20;99.90
8178;DHT22;4130;48.740;9.132;2022-10-26T15:47:57;17.90;99.90
8178;DHT22;4130;48.740;9.132;2022-10-26T15:50:26;17.70;99.90
8178;DHT22;4130;48.740;9.132;2022-10-26T15:52:59;17.50;99.90
8178;DHT22;4130;48.740;9.132;2022-10-26T15:55:29;17.30;99.90
8178;DHT22;4130;48.740;9.132;2022-10-26T15:57:56;17.10;99.90
8178;DHT22;4130;48.740;9.132;2022-10-26T16:00:22;16.90;99.90
8178;DHT22;4130;48.740;9.132;2022-10-26T16:02:49;16.70;99.90
8178;DHT22;4130;48.740;9.132;2022-10-26T16:05:16;16.50;99.90
8178;DHT22;4130;48.740;9.132;2022-10-26T16:07:45;16.30;99.90
8178;DHT22;4130;48.740;9.132;2022-10-26T16:10:17;16.20;99.90
8178;DHT22;4130;48.740;9.132;2022-10-26T16:12:45;16.00;99.90
8178;DHT22;4130;48.740;9.132;2022-10-26T16:15:16;17.00;99.90
8178;DHT22;4130;48.740;9.132;2022-10-26T16:17:43;15.60;99.90
8178;DHT22;4130;48.740;9.132;2022-10-26T16:20:13;15.50;99.90
8178;DHT22;4130;48.740;9.132;2022-10-26T16:22:40;15.40;99.90
8178;DHT22;4130;48.740;9.132;2022-10-26T16:25:11;15.30;99.90
8178;DHT22;4130;48.740;9.132;2022-10-26T16:27:38;15.90;99.90
8178;DHT22;4130;48.740;9.132;2022-10-26T16:30:08;15.00;99.90
8178;DHT22;4130;48.740;9.132;2022-10-26T16:32:34;14.90;99.90
8178;DHT22;4130;48.740;9.132;2022-10-26T16:35:01;15.30;99.90
8178;DHT22;4130;48.740;9.132;2022-10-26T16:37:28;14.70;99.90
8178;DHT22;4130;48.740;9.132;2022-10-26T16:39:55;14.60;99.90